Time;durP1;ratioP1;P1;durP2;ratioP2;P2;SDS_P1;SDS_P2;PMS_P1;PMS_P2;Temp;Humidity;BMP_temperature;BMP_pressure;BME280_temperature;BME280_humidity;BME280_pressure;Samples;Min_cycle;Max_cycle;Signal;HPM_P1;HPM_P2
2023/01/31 00:02:19;;;;;;;;;30.67;21.00;;;;;5.53;74.90;102431.59;5140267;27;46180;-66
2023/01/31 00:04:45;;;;;;;;;21.67;17.33;;;;;5.54;74.28;102425.53;5140302;27;45645;-65
2023/01/31 00:07:10;;;;;;;;;30.33;20.00;;;;;5.51;74.61;102423.72;5140382;27;45698;-65
2023/01/31 00:09:35;;;;;;;;;30.00;23.00;;;;;5.49;74.35;102429.72;5140584;27;45373;-65
2023/01/31 00:12:01;;;;;;;;;27.33;22.00;;;;;5.41;74.80;102425.19;5139578;27;45343;-66
2023/01/31 00:14:26;;;;;;;;;30.67;25.67;;;;;5.49;75.03;102441.09;5127961;27;45382;-65
2023/01/31 00:16:51;;;;;;;;;31.00;24.33;;;;;5.45;75.19;102439.25;5119217;27;45278;-65
2023/01/31 00:19:17;;;;;;;;;24.50;20.50;;;;;5.46;75.70;102440.09;5119719;27;45447;-65
2023/01/31 00:21:44;;;;;;;;;32.67;24.33;;;;;5.41;75.79;102419.97;5118940;27;45947;-66
2023/01/31 00:24:11;;;;;;;;;22.00;18.00;;;;;5.44;75.50;102432.22;5119243;27;45493;-65
2023/01/31 00:26:37;;;;;;;;;21.33;20.67;;;;;5.40;75.47;102426.06;5119314;27;45456;-66
2023/01/31 00:29:04;;;;;;;;;25.67;21.00;;;;;5.40;75.82;102419.94;5119408;27;45440;-65
2023/01/31 00:31:32;;;;;;;;;31.00;24.00;;;;;5.40;75.71;102420.84;5125111;27;45509;-66
2023/01/31 00:33:58;;;;;;;;;24.67;21.00;;;;;5.39;75.57;102418.19;5134004;27;45472;-66
2023/01/31 00:36:27;;;;;;;;;25.67;18.67;;;;;5.38;75.38;102416.41;5122974;27;45495;-66
2023/01/31 00:38:55;;;;;;;;;20.67;20.00;;;;;5.26;76.05;102397.78;5120179;27;45567;-66
2023/01/31 00:41:22;;;;;;;;;22.67;18.67;;;;;5.31;76.06;102404.91;5121361;27;46938;-67
2023/01/31 00:43:49;;;;;;;;;24.00;18.67;;;;;5.34;75.31;102410.22;5133299;27;45442;-66
2023/01/31 00:46:15;;;;;;;;;26.33;20.00;;;;;5.28;76.04;102401.34;5139725;27;45436;-66
2023/01/31 00:48:40;;;;;;;;;31.00;21.00;;;;;5.30;76.44;102404.88;5121256;27;45154;-66
2023/01/31 00:51:06;;;;;;;;;26.00;16.00;;;;;5.28;75.36;102410.06;5125239;27;45595;-66
2023/01/31 00:53:31;;;;;;;;;31.33;21.00;;;;;5.25;76.17;102404.75;5139984;27;45421;-66
2023/01/31 00:56:06;;;;;;;;;27.00;21.33;;;;;5.21;76.30;102402.91;5140175;27;45369;-66
2023/01/31 00:58:33;;;;;;;;;24.33;20.00;;;;;5.17;76.38;102417.63;5140459;27;45462;-66
2023/01/31 01:01:13;;;;;;;;;29.00;25.33;;;;;5.13;76.02;102397.50;5122277;27;46327;-66
2023/01/31 01:03:40;;;;;;;;;30.33;25.00;;;;;5.13;76.64;102405.31;5117912;27;45350;-66
2023/01/31 01:06:07;;;;;;;;;26.33;25.00;;;;;5.15;76.66;102407.97;5119222;27;45246;-66
2023/01/31 01:08:33;;;;;;;;;23.33;20.00;;;;;5.03;76.79;102379.81;5119851;27;45251;-65
2023/01/31 01:11:13;;;;;;;;;29.00;21.33;;;;;4.86;75.98;102341.09;5139467;27;47275;-65
2023/01/31 01:13:40;;;;;;;;;28.67;24.33;;;;;5.02;76.60;102367.59;5139728;27;45243;-66
2023/01/31 01:16:15;;;;;;;;;23.00;19.00;;;;;5.08;76.40;102382.53;5139696;27;45242;-66
2023/01/31 01:18:41;;;;;;;;;20.67;18.67;;;;;4.84;75.60;102339.28;5139911;27;45380;-66
2023/01/31 01:21:13;;;;;;;;;29.33;24.33;;;;;5.09;76.32;102384.31;5131940;27;46125;-65
2023/01/31 01:23:40;;;;;;;;;23.67;22.00;;;;;5.02;76.06;102380.66;5111430;27;45322;-65
2023/01/31 01:26:12;;;;;;;;;29.67;22.67;;;;;5.03;76.01;102383.31;5124524;27;45432;-65
2023/01/31 01:28:38;;;;;;;;;26.00;24.00;;;;;5.00;76.23;102382.34;5139663;27;45429;-65
2023/01/31 01:31:06;;;;;;;;;31.33;23.33;;;;;4.87;76.51;102368.09;5118999;27;45460;-65
2023/01/31 01:33:31;;;;;;;;;30.00;26.00;;;;;4.93;76.77;102383.03;5118590;27;45471;-66
2023/01/31 01:36:01;;;;;;;;;22.33;18.33;;;;;4.90;76.72;102386.44;5118903;27;45694;-65
2023/01/31 01:38:26;;;;;;;;;27.33;21.67;;;;;4.87;77.34;102389.84;5119000;27;45354;-65
2023/01/31 01:40:52;;;;;;;;;20.33;17.33;;;;;4.85;76.77;102388.91;5118363;27;45342;-66
2023/01/31 01:43:17;;;;;;;;;27.67;21.33;;;;;4.82;76.76;102385.31;5129125;27;45342;-66
2023/01/31 01:45:43;;;;;;;;;24.00;20.00;;;;;4.85;77.65;102395.84;5139472;27;45231;-66
2023/01/31 01:48:16;;;;;;;;;27.33;23.00;;;;;4.82;78.03;102387.94;5139448;27;45377;-66
2023/01/31 01:50:47;;;;;;;;;24.67;19.00;;;;;4.85;78.09;102399.38;5139252;27;46238;-65
2023/01/31 01:53:26;;;;;;;;;19.00;13.67;;;;;4.81;77.45;102391.41;5139138;27;45476;-66
2023/01/31 01:55:56;;;;;;;;;20.33;16.67;;;;;4.86;77.67;102400.22;5133801;27;45324;-66
2023/01/31 01:58:32;;;;;;;;;15.00;13.33;;;;;4.87;78.07;102404.63;5118840;27;45324;-66
2023/01/31 02:00:58;;;;;;;;;22.33;18.00;;;;;4.87;78.41;102408.09;5097789;27;46110;-66
2023/01/31 02:03:25;;;;;;;;;30.33;16.33;;;;;4.82;78.03;102404.50;5097569;27;45520;-66
2023/01/31 02:05:55;;;;;;;;;24.00;18.67;;;;;4.88;78.34;102412.50;5112978;27;45451;-65
2023/01/31 02:08:24;;;;;;;;;14.33;14.33;;;;;4.84;77.33;102397.59;5118637;27;45353;-66
2023/01/31 02:10:56;;;;;;;;;13.33;9.67;;;;;4.86;78.17;102408.94;5117851;27;45374;-65
2023/01/31 02:13:22;;;;;;;;;23.33;18.00;;;;;4.86;77.89;102401.09;5117563;27;45471;-65
2023/01/31 02:15:48;;;;;;;;;17.33;15.67;;;;;4.79;77.83;102393.97;5124192;27;46253;-65
2023/01/31 02:18:14;;;;;;;;;17.00;13.33;;;;;4.79;77.99;102390.47;5138093;27;45469;-65
2023/01/31 02:21:02;;;;;;;;;20.00;14.00;;;;;4.75;77.65;102388.59;5145786;27;47101;-66
2023/01/31 02:23:39;;;;;;;;;22.67;16.00;;;;;4.74;78.11;102392.09;5145792;27;45267;-65
2023/01/31 02:26:44;;;;;;;;;18.00;13.67;;;;;4.68;78.09;102401.50;5127085;27;45352;-66
2023/01/31 02:29:28;;;;;;;;;18.67;15.00;;;;;4.66;79.66;102411.00;5125295;27;45479;-66
2023/01/31 02:32:20;;;;;;;;;20.67;19.00;;;;;4.67;79.21;102414.50;5124306;27;46401;-66
2023/01/31 02:35:11;;;;;;;;;13.00;11.67;;;;;4.67;78.52;102422.31;5132301;27;45306;-66
2023/01/31 02:37:43;;;;;;;;;12.67;9.67;;;;;4.59;79.24;102401.25;5125593;27;45520;-65
2023/01/31 02:40:38;;;;;;;;;17.67;11.33;;;;;4.68;79.17;102408.44;5125026;27;45245;-66
2023/01/31 02:43:18;;;;;;;;;16.67;11.00;;;;;4.63;80.37;102408.31;5040862;28;46879;-66
2023/01/31 02:45:46;;;;;;;;;13.00;11.33;;;;;4.66;80.82;102411.00;5039783;28;45459;-66
2023/01/31 02:48:17;;;;;;;;;18.33;13.33;;;;;4.62;80.21;102400.41;5040199;28;45527;-66
2023/01/31 02:51:35;;;;;;;;;14.00;7.00;;;;;4.66;79.30;102404.88;5041159;28;45334;-66
2023/01/31 02:54:14;;;;;;;;;15.00;9.00;;;;;4.59;79.76;102387.28;4985531;28;47419;-65
2023/01/31 02:56:41;;;;;;;;;20.67;12.00;;;;;4.70;79.61;102405.03;4980348;28;45466;-66
2023/01/31 02:59:21;;;;;;;;;13.33;10.33;;;;;4.65;80.11;102395.31;4981330;28;45366;-66
2023/01/31 03:01:55;;;;;;;;;15.00;11.33;;;;;4.29;80.41;102320.41;4981527;28;45578;-66
2023/01/31 03:04:20;;;;;;;;;12.67;8.33;;;;;4.56;80.18;102376.78;4981047;28;45419;-66
2023/01/31 03:07:25;;;;;;;;;18.00;12.00;;;;;4.49;80.84;102392.25;4981157;28;45529;-66
2023/01/31 03:10:12;;;;;;;;;12.00;10.67;;;;;4.45;81.40;102395.59;4941370;28;45448;-66
2023/01/31 03:12:50;;;;;;;;;14.00;11.00;;;;;4.40;81.23;102378.06;4940650;28;45639;-66
2023/01/31 03:18:27;;;;;;;;;15.00;10.00;;;;;4.37;81.90;102378.84;4941939;28;45421;-66
2023/01/31 03:21:15;;;;;;;;;16.33;11.33;;;;;4.13;81.88;102342.53;4975213;28;45368;-66
2023/01/31 03:23:47;;;;;;;;;12.33;9.00;;;;;4.33;83.29;102375.28;4981888;28;45429;-66
2023/01/31 03:26:14;;;;;;;;;12.00;9.67;;;;;4.38;82.59;102385.84;4977250;28;45666;-66
2023/01/31 03:28:41;;;;;;;;;15.00;12.00;;;;;4.39;83.26;102385.00;4985793;28;45482;-65
2023/01/31 03:31:19;;;;;;;;;12.67;8.67;;;;;4.40;82.66;102365.00;5057490;28;45630;-65
2023/01/31 03:33:49;;;;;;;;;9.67;7.67;;;;;4.42;82.40;102355.53;5039474;28;45442;-66
2023/01/31 03:36:51;;;;;;;;;14.67;12.33;;;;;4.44;83.23;102370.34;5056951;28;45542;-66
2023/01/31 03:39:35;;;;;;;;;8.33;8.33;;;;;4.44;83.24;102370.34;5057128;28;45386;-65
2023/01/31 03:42:08;;;;;;;;;9.00;7.00;;;;;4.36;84.00;102354.50;5057312;28;45364;-66
2023/01/31 03:44:42;;;;;;;;;14.67;11.00;;;;;4.46;83.59;102363.47;5067539;27;45412;-65
2023/01/31 03:47:34;;;;;;;;;9.00;6.67;;;;;4.43;83.02;102349.44;5120155;27;45433;-66
2023/01/31 03:50:05;;;;;;;;;13.00;9.67;;;;;4.44;82.89;102353.84;5119238;27;45588;-66
2023/01/31 03:52:37;;;;;;;;;17.67;12.67;;;;;4.41;83.03;102340.72;5120522;27;45453;-66
2023/01/31 03:55:17;;;;;;;;;4.67;4.00;;;;;4.47;83.35;102343.50;5120592;27;45558;-65
2023/01/31 03:57:48;;;;;;;;;16.00;11.00;;;;;4.49;83.22;102352.25;5119789;27;45669;-66
2023/01/31 04:00:15;;;;;;;;;13.00;8.67;;;;;4.47;83.27;102343.50;5140937;27;45483;-66
2023/01/31 04:02:41;;;;;;;;;12.67;8.67;;;;;4.48;83.33;102329.63;5141025;27;45455;-66
2023/01/31 04:05:09;;;;;;;;;11.50;8.50;;;;;4.51;84.20;102341.00;5141347;27;45373;-65
2023/01/31 04:07:36;;;;;;;;;11.33;7.00;;;;;4.52;83.97;102355.81;5130718;27;46572;-66
2023/01/31 04:10:06;;;;;;;;;11.33;10.67;;;;;4.52;84.46;102350.59;5120352;27;45480;-66
2023/01/31 04:12:36;;;;;;;;;7.33;7.33;;;;;4.53;84.27;102344.56;5120020;27;45877;-66
2023/01/31 04:15:02;;;;;;;;;9.33;8.00;;;;;4.55;83.25;102352.44;5119526;27;45394;-66
2023/01/31 04:17:28;;;;;;;;;12.00;9.00;;;;;4.51;83.19;102341.00;5119249;27;46903;-66
2023/01/31 04:19:53;;;;;;;;;13.33;8.67;;;;;4.49;84.07;102334.88;5119768;27;45414;-66
2023/01/31 04:22:18;;;;;;;;;18.67;8.00;;;;;4.51;84.38;102359.25;5119322;27;45931;-66
2023/01/31 04:24:44;;;;;;;;;12.67;11.67;;;;;4.53;83.93;102344.56;5120229;27;45428;-66
2023/01/31 04:27:09;;;;;;;;;12.00;11.00;;;;;4.56;83.60;102348.06;5118967;27;45348;-66
2023/01/31 04:29:34;;;;;;;;;6.67;6.00;;;;;4.52;83.80;102348.00;5119906;27;45399;-66
2023/01/31 04:31:59;;;;;;;;;15.67;9.00;;;;;4.59;83.76;102350.78;5119969;27;45417;-66
2023/01/31 04:34:25;;;;;;;;;14.00;12.00;;;;;4.48;83.25;102317.44;5117568;27;46097;-66
2023/01/31 04:36:50;;;;;;;;;10.67;10.33;;;;;4.65;83.16;102341.41;5119375;27;46333;-66
2023/01/31 04:39:15;;;;;;;;;9.00;9.00;;;;;4.66;83.04;102327.53;5119567;27;45571;-66
2023/01/31 04:41:41;;;;;;;;;12.67;10.33;;;;;4.63;83.54;102319.63;5119891;27;45363;-66
2023/01/31 04:44:06;;;;;;;;;13.00;9.33;;;;;4.56;84.06;102301.13;5119979;27;45378;-66
2023/01/31 04:46:32;;;;;;;;;13.33;8.67;;;;;4.60;83.27;102305.59;5118704;27;45584;-66
2023/01/31 04:48:57;;;;;;;;;11.67;9.00;;;;;4.71;83.51;102306.78;5119565;27;45385;-66
2023/01/31 04:51:22;;;;;;;;;11.00;7.00;;;;;4.68;83.72;102312.78;5108344;27;45400;-66
2023/01/31 04:53:48;;;;;;;;;8.67;8.67;;;;;4.71;84.12;102327.66;5099232;27;45232;-66
2023/01/31 04:56:13;;;;;;;;;13.67;9.00;;;;;4.64;83.42;102297.88;5098481;27;46441;-66
2023/01/31 04:58:40;;;;;;;;;13.33;10.00;;;;;4.70;83.77;102307.59;5098690;27;45197;-66
2023/01/31 05:01:06;;;;;;;;;6.67;4.67;;;;;4.50;83.44;102271.44;5110634;27;45430;-66
2023/01/31 05:03:31;;;;;;;;;13.67;8.00;;;;;4.77;84.08;102312.16;5119163;27;45517;-66
2023/01/31 05:05:56;;;;;;;;;7.00;7.00;;;;;4.79;83.78;102310.47;5119359;27;46616;-66
2023/01/31 05:08:22;;;;;;;;;9.33;7.00;;;;;4.57;83.60;102261.16;5127849;27;45333;-66
2023/01/31 05:10:47;;;;;;;;;13.00;8.00;;;;;4.87;84.28;102311.53;5136796;27;45574;-66
2023/01/31 05:13:13;;;;;;;;;12.67;10.00;;;;;4.83;83.52;102296.63;5118138;27;45365;-66
2023/01/31 05:15:39;;;;;;;;;10.33;9.00;;;;;4.87;84.10;102301.09;5118863;27;46175;-66
2023/01/31 05:18:05;;;;;;;;;12.00;9.00;;;;;4.91;83.58;102296.84;5118990;27;45445;-66
2023/01/31 05:20:38;;;;;;;;;11.67;9.67;;;;;4.92;83.60;102298.59;5118875;27;45323;-66
2023/01/31 05:23:04;;;;;;;;;16.67;8.33;;;;;4.92;83.87;102300.34;5119248;27;45463;-66
2023/01/31 05:25:30;;;;;;;;;14.00;8.67;;;;;4.90;83.81;102305.53;5139460;27;45839;-66
2023/01/31 05:27:55;;;;;;;;;10.33;9.67;;;;;4.91;84.14;102304.69;5139394;27;45325;-66
2023/01/31 05:30:23;;;;;;;;;12.00;8.33;;;;;4.84;83.90;102298.41;5139792;27;45297;-66
2023/01/31 05:32:49;;;;;;;;;11.33;8.67;;;;;4.92;83.92;102314.25;5139872;27;45518;-66
2023/01/31 05:35:15;;;;;;;;;9.00;8.00;;;;;4.96;83.82;102313.50;5128254;27;45591;-66
2023/01/31 05:37:41;;;;;;;;;9.00;8.67;;;;;4.98;84.08;102322.28;5118574;27;45409;-66
2023/01/31 05:40:09;;;;;;;;;12.00;11.33;;;;;4.98;84.51;102319.66;5118600;27;45223;-66
2023/01/31 05:42:35;;;;;;;;;27.33;25.00;;;;;5.04;83.80;102296.31;5118709;27;45478;-66
2023/01/31 05:45:00;;;;;;;;;15.33;9.00;;;;;5.09;84.31;102303.38;5118637;27;46325;-66
2023/01/31 05:47:26;;;;;;;;;10.67;10.33;;;;;5.10;83.77;102292.06;5118466;27;45539;-66
2023/01/31 05:49:51;;;;;;;;;10.33;10.00;;;;;5.02;83.90;102284.06;5117397;27;45358;-66
2023/01/31 05:52:16;;;;;;;;;7.33;7.33;;;;;5.14;83.76;102292.22;5131514;27;45867;-66
2023/01/31 05:54:41;;;;;;;;;17.33;13.00;;;;;5.09;83.66;102274.69;5139127;27;46367;-66
2023/01/31 05:57:07;;;;;;;;;11.67;8.67;;;;;5.18;83.46;102288.81;5139196;27;45312;-66
2023/01/31 05:59:32;;;;;;;;;12.33;10.67;;;;;5.17;83.83;102294.00;5133553;27;45751;-66
2023/01/31 06:01:58;;;;;;;;;16.67;9.00;;;;;4.91;83.58;102243.75;5118907;27;45249;-66
2023/01/31 06:04:23;;;;;;;;;13.00;12.00;;;;;5.07;83.69;102269.41;5117893;27;45610;-66
2023/01/31 06:06:48;;;;;;;;;12.33;9.00;;;;;5.11;84.07;102279.09;5116901;27;45430;-66
2023/01/31 06:09:14;;;;;;;;;15.33;9.33;;;;;5.19;83.97;102294.94;5131774;27;45365;-66
2023/01/31 06:11:39;;;;;;;;;16.00;10.50;;;;;5.20;83.67;102279.31;5137419;27;45475;-66
2023/01/31 06:14:05;;;;;;;;;8.33;8.00;;;;;5.21;83.85;102272.34;5117243;27;48103;-66
2023/01/31 06:16:31;;;;;;;;;14.00;10.00;;;;;5.22;83.48;102274.13;5118009;27;45416;-66
2023/01/31 06:18:57;;;;;;;;;12.00;11.00;;;;;5.27;83.53;102282.06;5118481;27;45262;-66
2023/01/31 06:21:22;;;;;;;;;12.67;12.00;;;;;5.25;83.92;102279.41;5118200;27;45400;-66
2023/01/31 06:23:47;;;;;;;;;12.33;8.33;;;;;5.25;83.96;102274.19;5116970;27;46448;-66
2023/01/31 06:26:13;;;;;;;;;13.33;10.00;;;;;5.31;83.54;102263.00;5125337;27;45310;-66
2023/01/31 06:28:39;;;;;;;;;12.00;10.33;;;;;5.29;83.86;102270.81;5118004;27;45389;-66
2023/01/31 06:31:11;;;;;;;;;15.33;10.33;;;;;5.37;83.56;102274.50;5116355;27;45492;-66
2023/01/31 06:33:37;;;;;;;;;12.67;12.00;;;;;5.38;83.84;102277.97;5116521;27;46936;-66
2023/01/31 06:36:03;;;;;;;;;11.33;11.33;;;;;5.33;83.72;102259.59;5117663;27;45428;-67
2023/01/31 06:38:28;;;;;;;;;8.33;8.00;;;;;5.36;83.99;102256.19;5117932;27;45408;-66
2023/01/31 06:40:54;;;;;;;;;7.33;6.00;;;;;5.39;83.74;102246.66;5118132;27;45301;-66
2023/01/31 06:43:19;;;;;;;;;14.33;11.33;;;;;5.39;84.18;102261.47;5121645;27;46606;-66
2023/01/31 06:45:45;;;;;;;;;15.00;13.33;;;;;5.40;84.03;102264.13;5138656;27;45314;-66
2023/01/31 06:48:11;;;;;;;;;23.33;9.33;;;;;5.39;84.07;102264.09;5137860;27;45317;-66
2023/01/31 06:50:36;;;;;;;;;10.67;9.67;;;;;5.33;84.16;102264.81;5137437;27;45572;-66
2023/01/31 06:53:02;;;;;;;;;13.33;9.00;;;;;5.30;84.32;102261.22;5138337;27;46327;-66
2023/01/31 06:55:27;;;;;;;;;10.00;10.00;;;;;5.28;84.56;102262.94;5130587;27;45431;-66
2023/01/31 06:57:54;;;;;;;;;19.33;11.67;;;;;5.21;84.67;102267.13;5117237;27;45362;-66
2023/01/31 07:00:20;;;;;;;;;20.00;18.33;;;;;5.19;85.19;102261.88;5116757;27;45282;-65
2023/01/31 07:02:46;;;;;;;;;11.67;7.00;;;;;5.15;85.23;102252.19;5119973;27;45397;-66
2023/01/31 07:05:11;;;;;;;;;8.67;6.00;;;;;5.21;85.33;102254.97;5120704;27;45513;-66
2023/01/31 07:07:37;;;;;;;;;21.33;18.33;;;;;5.24;85.26;102246.31;5134134;27;45358;-65
2023/01/31 07:10:02;;;;;;;;;18.00;9.33;;;;;5.23;85.19;102255.88;5142182;27;45409;-66
2023/01/31 07:12:28;;;;;;;;;12.67;12.00;;;;;5.21;85.20;102254.06;5141339;27;46005;-68
2023/01/31 07:14:53;;;;;;;;;14.33;12.33;;;;;5.27;85.07;102266.38;5141777;27;45476;-66
2023/01/31 07:17:20;;;;;;;;;6.67;1.00;;;;;5.26;84.96;102259.38;5121581;27;45524;-66
2023/01/31 07:19:45;;;;;;;;;10.00;9.00;;;;;5.23;84.79;102263.72;5121164;27;45467;-66
2023/01/31 07:22:10;;;;;;;;;15.33;10.67;;;;;5.23;85.02;102257.63;5120454;27;46628;-66
2023/01/31 07:24:36;;;;;;;;;14.67;12.33;;;;;5.32;85.31;102281.31;5133957;27;45554;-66
2023/01/31 07:27:01;;;;;;;;;9.00;7.67;;;;;5.08;85.06;102226.78;5141605;27;45400;-66
2023/01/31 07:29:27;;;;;;;;;13.33;13.00;;;;;5.36;85.07;102271.84;5138643;27;45365;-66
2023/01/31 07:31:53;;;;;;;;;17.33;12.00;;;;;5.42;85.16;102274.59;5120606;27;45549;-67
2023/01/31 07:34:21;;;;;;;;;6.33;6.00;;;;;5.11;85.46;102225.97;5120829;27;45502;-66
2023/01/31 07:36:47;;;;;;;;;9.67;8.00;;;;;5.43;85.27;102281.56;5120397;27;45388;-66
2023/01/31 07:39:13;;;;;;;;;16.67;12.67;;;;;5.45;85.13;102294.69;5120230;27;45389;-66
2023/01/31 07:41:38;;;;;;;;;9.33;8.00;;;;;5.50;84.99;102295.66;5134450;27;47342;-66
2023/01/31 07:44:07;;;;;;;;;20.00;18.67;;;;;5.47;85.13;102282.53;5141273;27;45389;-66
2023/01/31 07:46:33;;;;;;;;;10.33;8.33;;;;;5.55;85.16;102289.69;5136957;27;45173;-66
2023/01/31 07:48:58;;;;;;;;;10.00;10.00;;;;;5.57;85.02;102293.22;5120616;27;45391;-66
2023/01/31 07:51:23;;;;;;;;;16.00;10.67;;;;;5.59;84.86;102285.41;5119380;27;45450;-66
2023/01/31 07:53:49;;;;;;;;;16.00;9.67;;;;;5.58;85.09;102283.66;5120401;27;45411;-66
2023/01/31 07:56:17;;;;;;;;;17.00;14.33;;;;;5.34;84.91;102237.84;5117706;27;45547;-66
2023/01/31 07:58:44;;;;;;;;;15.00;11.33;;;;;5.69;84.81;102289.13;5120676;27;45294;-66
2023/01/31 08:04:07;;;;;;;;;16.00;13.67;;;;;5.72;84.66;102295.31;5114835;27;45597;-66
2023/01/31 08:06:33;;;;;;;;;13.33;9.00;;;;;5.77;84.64;102297.16;5118476;27;45478;-66
2023/01/31 08:08:59;;;;;;;;;18.67;14.67;;;;;5.79;84.89;102290.22;5120596;27;45352;-68
2023/01/31 08:11:25;;;;;;;;;27.33;23.67;;;;;5.80;84.55;102289.38;5115129;27;45432;-67
2023/01/31 08:13:52;;;;;;;;;18.00;11.67;;;;;5.81;84.67;102289.41;5119718;27;45754;-67
2023/01/31 08:16:19;;;;;;;;;8.33;7.67;;;;;5.82;85.00;102282.44;5119974;27;45342;-67
2023/01/31 08:18:45;;;;;;;;;14.67;9.33;;;;;5.84;84.88;102280.72;5120200;27;45346;-66
2023/01/31 08:21:11;;;;;;;;;16.00;15.00;;;;;5.79;84.59;102272.78;5119548;27;45384;-67
2023/01/31 08:23:38;;;;;;;;;13.33;9.33;;;;;5.88;84.82;102274.72;5119182;27;45521;-67
2023/01/31 08:26:09;;;;;;;;;15.67;10.00;;;;;5.87;84.94;102276.47;5119464;27;45524;-66
2023/01/31 08:28:34;;;;;;;;;19.00;11.00;;;;;5.92;84.92;102271.31;5118398;27;45343;-68
2023/01/31 08:31:00;;;;;;;;;12.33;8.67;;;;;6.02;84.83;102278.53;5106547;27;46143;-65
2023/01/31 08:33:25;;;;;;;;;15.67;9.33;;;;;6.06;84.69;102276.91;5099069;27;45370;-66
2023/01/31 08:35:51;;;;;;;;;7.67;6.00;;;;;5.94;84.82;102240.88;5115913;27;45472;-67
2023/01/31 08:38:16;;;;;;;;;15.00;12.67;;;;;6.19;85.01;102273.66;5119555;27;45355;-67
2023/01/31 08:40:42;;;;;;;;;13.67;13.00;;;;;6.32;84.67;102266.06;5119726;27;46446;-67
2023/01/31 08:43:08;;;;;;;;;13.00;10.67;;;;;6.40;84.34;102265.34;5119347;27;45405;-65
2023/01/31 08:45:33;;;;;;;;;13.33;11.00;;;;;6.44;83.86;102251.47;5118495;27;45433;-66
2023/01/31 08:47:59;;;;;;;;;16.33;9.00;;;;;6.49;84.03;102241.13;5118332;27;45328;-66
2023/01/31 08:50:28;;;;;;;;;12.00;10.33;;;;;6.49;84.01;102240.22;5119174;27;45522;-66
2023/01/31 08:52:55;;;;;;;;;17.33;14.33;;;;;6.56;84.14;102249.94;5119157;27;45332;-65
2023/01/31 08:55:22;;;;;;;;;15.33;10.33;;;;;6.63;83.87;102244.84;5119026;27;45312;-65
2023/01/31 08:57:48;;;;;;;;;8.00;5.00;;;;;6.68;83.65;102234.47;5119069;27;45523;-65
2023/01/31 09:00:15;;;;;;;;;13.67;10.00;;;;;6.86;83.52;102253.97;5119268;27;46178;-64
2023/01/31 09:02:40;;;;;;;;;15.33;12.67;;;;;6.96;83.42;102248.03;5118494;27;45698;-64
2023/01/31 09:05:07;;;;;;;;;21.33;17.00;;;;;7.14;83.02;102257.91;5119075;27;45402;-65
2023/01/31 09:07:35;;;;;;;;;17.00;13.00;;;;;7.45;82.21;102254.03;5119091;27;45382;-65
2023/01/31 09:10:01;;;;;;;;;11.00;9.33;;;;;7.63;81.07;102244.66;5118869;27;45495;-64
2023/01/31 09:12:26;;;;;;;;;9.33;8.00;;;;;7.79;80.30;102219.53;5118757;27;45454;-64
2023/01/31 09:14:51;;;;;;;;;11.00;11.00;;;;;7.92;80.11;102229.28;5116937;27;45449;-65
2023/01/31 09:17:18;;;;;;;;;53.33;43.33;;;;;7.99;79.92;102225.88;5119197;27;45480;-65
2023/01/31 09:19:43;;;;;;;;;17.67;14.33;;;;;7.98;79.60;102213.63;5115194;27;45553;-64
2023/01/31 09:22:08;;;;;;;;;19.00;14.33;;;;;8.02;79.69;102218.03;5118359;27;45498;-66
2023/01/31 09:24:34;;;;;;;;;15.67;11.67;;;;;8.06;79.76;102218.97;5117765;27;45420;-65
2023/01/31 09:26:59;;;;;;;;;17.00;10.00;;;;;8.08;79.73;102225.09;5115942;27;46026;-65
2023/01/31 09:29:25;;;;;;;;;14.33;10.00;;;;;8.08;79.85;102229.50;5118606;27;45703;-66
2023/01/31 09:31:51;;;;;;;;;12.00;10.00;;;;;8.12;79.77;102228.66;5117941;27;45160;-65
2023/01/31 09:34:17;;;;;;;;;14.33;10.00;;;;;8.08;79.65;102219.00;5118001;27;45426;-65
2023/01/31 09:36:43;;;;;;;;;15.67;10.00;;;;;8.01;80.10;102218.91;5118985;27;45590;-65
2023/01/31 09:39:10;;;;;;;;;21.00;14.67;;;;;8.08;80.21;102224.25;5118199;27;45375;-66
2023/01/31 09:41:40;;;;;;;;;16.67;15.67;;;;;8.18;80.18;102228.72;5117092;27;45540;-65
2023/01/31 09:44:13;;;;;;;;;13.67;11.00;;;;;8.31;80.23;102233.25;5118631;27;45459;-65
2023/01/31 09:46:43;;;;;;;;;10.67;8.67;;;;;8.41;79.93;102239.47;5118244;27;45398;-65
2023/01/31 09:49:17;;;;;;;;;11.00;10.67;;;;;8.36;79.61;102235.91;5113910;27;45822;-64
2023/01/31 09:51:43;;;;;;;;;14.75;9.75;;;;;8.40;79.93;102231.59;5115333;27;45656;-65
2023/01/31 09:54:19;;;;;;;;;8.67;8.67;;;;;8.30;79.83;102206.97;5116928;27;45491;-65
2023/01/31 09:56:59;;;;;;;;;15.67;11.00;;;;;8.47;79.95;102236.94;5116937;27;45452;-67
2023/01/31 09:59:35;;;;;;;;;12.25;9.00;;;;;8.45;80.03;102228.19;5125508;27;46592;-64
2023/01/31 10:02:26;;;;;;;;;13.00;10.67;;;;;8.57;80.07;102239.63;5114684;27;45776;-65
2023/01/31 10:05:13;;;;;;;;;12.00;11.00;;;;;8.62;80.03;102236.19;5024504;28;45616;-67
2023/01/31 10:07:58;;;;;;;;;18.33;10.00;;;;;8.50;80.39;102204.59;5033596;28;45873;-66
2023/01/31 10:10:36;;;;;;;;;5.00;4.00;;;;;8.77;80.39;102237.22;5033178;28;46605;-66
2023/01/31 10:13:09;;;;;;;;;11.00;5.50;;;;;8.81;80.45;102231.13;5032528;28;45498;-66
2023/01/31 10:15:45;;;;;;;;;8.75;4.00;;;;;8.90;80.19;102228.56;5033623;28;45343;-66
2023/01/31 10:18:23;;;;;;;;;3.00;3.00;;;;;8.99;80.08;102214.63;5033657;28;45437;-67
2023/01/31 10:20:52;;;;;;;;;4.00;3.00;;;;;9.15;80.05;102220.84;5033029;28;45681;-64
2023/01/31 10:23:27;;;;;;;;;4.25;3.50;;;;;9.21;79.99;102224.41;5033264;28;45413;-63
2023/01/31 10:25:59;;;;;;;;;7.50;2.75;;;;;9.18;79.68;102215.66;5033293;28;45616;-66
2023/01/31 10:28:51;;;;;;;;;6.00;3.00;;;;;9.20;79.96;102220.03;5032978;28;45394;-66
2023/01/31 10:31:32;;;;;;;;;7.25;1.50;;;;;9.27;79.92;102217.47;5033133;28;46357;-68
2023/01/31 10:34:04;;;;;;;;;8.25;2.50;;;;;9.36;79.41;102226.25;5033396;28;45358;-68
2023/01/31 10:36:35;;;;;;;;;6.50;5.00;;;;;9.39;79.54;102217.53;5036402;28;45509;-65
2023/01/31 10:39:12;;;;;;;;;4.50;2.00;;;;;9.52;79.26;102229.00;5036788;28;45460;-65
2023/01/31 10:41:43;;;;;;;;;5.50;1.75;;;;;9.63;78.67;102226.41;5062741;27;45689;-65
2023/01/31 10:44:22;;;;;;;;;4.00;2.25;;;;;9.64;78.29;102218.53;5115671;27;45609;-66
2023/01/31 10:46:50;;;;;;;;;1.75;1.50;;;;;9.86;78.42;102210.72;5105468;27;45524;-67
2023/01/31 10:49:18;;;;;;;;;6.25;1.75;;;;;10.20;77.09;102218.75;5100164;27;45422;-67
2023/01/31 10:52:00;;;;;;;;;6.75;3.50;;;;;10.50;75.91;102211.81;5099658;27;45484;-68
2023/01/31 10:54:28;;;;;;;;;6.75;4.00;;;;;10.76;74.92;102215.34;5119774;27;45570;-65
2023/01/31 10:56:54;;;;;;;;;4.50;2.00;;;;;10.93;73.81;102196.88;5120129;27;45460;-64
2023/01/31 10:59:24;;;;;;;;;3.25;2.00;;;;;11.19;72.16;102203.00;5120537;27;45454;-64
2023/01/31 11:01:50;;;;;;;;;3.50;1.00;;;;;11.25;72.66;102189.81;5120380;27;46463;-64
2023/01/31 11:04:24;;;;;;;;;4.00;2.00;;;;;11.32;71.40;102179.22;5119264;27;45458;-65
2023/01/31 11:06:50;;;;;;;;;3.25;2.25;;;;;11.30;71.76;102162.56;5116755;27;45470;-64
2023/01/31 11:09:16;;;;;;;;;4.00;3.50;;;;;11.26;70.91;102159.94;5115499;27;45636;-64
2023/01/31 11:11:59;;;;;;;;;3.00;1.25;;;;;11.23;71.49;102163.44;5118748;27;45464;-65
2023/01/31 11:14:24;;;;;;;;;6.25;3.25;;;;;11.15;71.25;102171.38;5120877;27;45502;-64
2023/01/31 11:16:58;;;;;;;;;6.00;2.00;;;;;11.22;71.58;102164.31;5135853;27;45447;-65
2023/01/31 11:19:24;;;;;;;;;2.25;2.00;;;;;11.46;71.62;102184.47;5111841;27;45484;-65
2023/01/31 11:21:51;;;;;;;;;6.25;2.00;;;;;11.47;70.97;102162.50;5119620;27;46474;-65
2023/01/31 11:24:20;;;;;;;;;2.75;2.25;;;;;11.57;71.39;102170.38;5119906;27;45767;-65
2023/01/31 11:26:58;;;;;;;;;19.33;16.67;;;;;11.61;70.50;102164.22;5119824;27;46104;-64
2023/01/31 11:29:29;;;;;;;;;6.50;1.50;;;;;11.63;69.80;102158.03;5120213;27;45405;-65
2023/01/31 11:31:57;;;;;;;;;5.50;2.50;;;;;11.50;69.80;102151.03;5119947;27;47007;-65
2023/01/31 11:34:30;;;;;;;;;19.00;17.33;;;;;11.50;70.29;102161.59;5119517;27;45365;-65
2023/01/31 11:37:11;;;;;;;;;4.25;2.75;;;;;11.45;70.67;102161.63;5119833;27;45385;-64
2023/01/31 11:39:38;;;;;;;;;4.25;2.00;;;;;11.36;71.11;102139.69;5115627;27;45499;-65